createdAt,value
2022-11-22T00:04:50.449Z,23.5
2022-11-22T00:10:12.358Z,23.6
2022-11-22T00:15:36.321Z,23.6
2022-11-22T00:21:14.477Z,23.6
2022-11-22T00:26:42.545Z,23.6
2022-11-22T00:31:49.798Z,23.6
2022-11-22T00:42:49.054Z,23.6
2022-11-22T00:48:26.677Z,23.7
2022-11-22T00:54:04.743Z,23.7
2022-11-22T00:59:41.755Z,23.7
2022-11-22T01:05:24.867Z,23.7
2022-11-22T01:11:02.881Z,23.8
2022-11-22T01:16:39.585Z,23.8
2022-11-22T01:22:17.794Z,23.8
2022-11-22T01:27:39.753Z,23.8
2022-11-22T01:33:01.626Z,23.8
2022-11-22T01:38:39.154Z,23.8
2022-11-22T01:44:16.882Z,23.8
2022-11-22T01:49:54.365Z,23.8
2022-11-22T01:55:32.240Z,23.8
2022-11-22T02:01:10.094Z,23.8
2022-11-22T02:06:32.419Z,23.9
2022-11-22T02:12:12.692Z,23.9
2022-11-22T02:17:50.400Z,23.9
2022-11-22T02:23:11.641Z,23.9
2022-11-22T02:28:49.723Z,23.9
2022-11-22T02:34:27.484Z,23.9
2022-11-22T02:40:05.707Z,23.9
2022-11-22T02:45:43.151Z,23.9
2022-11-22T02:51:05.475Z,23.9
2022-11-22T02:56:42.525Z,24
2022-11-22T03:02:25.014Z,24
2022-11-22T03:08:02.786Z,23.9
2022-11-22T03:18:49.538Z,24
2022-11-22T03:24:29.157Z,24
2022-11-22T03:29:51.128Z,24
2022-11-22T03:35:28.918Z,24
2022-11-22T03:40:51.400Z,24.1
2022-11-22T03:46:34.811Z,24.1
2022-11-22T03:51:57.621Z,24.1
2022-11-22T03:57:35.413Z,24.1
2022-11-22T04:03:17.884Z,24.1
2022-11-22T04:08:41.006Z,24.1
2022-11-22T04:13:48.351Z,24.1
2022-11-22T04:19:09.932Z,24.1
2022-11-22T04:24:47.502Z,24.1
2022-11-22T04:30:58.999Z,24.1
2022-11-22T04:36:36.016Z,24.1
2022-11-22T04:41:58.360Z,24.2
2022-11-22T04:47:20.826Z,24.1
2022-11-22T04:52:27.995Z,24.1
2022-11-22T04:57:53.157Z,24.1
2022-11-22T05:03:19.127Z,24.2
2022-11-22T05:09:01.262Z,24.2
2022-11-22T05:14:26.322Z,24.1
2022-11-22T05:19:17.712Z,24.2
2022-11-22T05:24:55.369Z,24.2
2022-11-22T05:30:02.290Z,24.2
2022-11-22T05:35:29.423Z,24.1
2022-11-22T05:41:07.664Z,24.1
2022-11-22T05:46:47.028Z,24.1
2022-11-22T05:52:29.265Z,24.2
2022-11-22T05:57:51.901Z,24.1
2022-11-22T06:03:31.159Z,24.1
2022-11-22T06:08:38.757Z,24.1
2022-11-22T06:14:01.953Z,24.2
2022-11-22T06:19:47.009Z,24.2
2022-11-22T06:25:28.254Z,24.2
2022-11-22T06:30:55.936Z,24.2
2022-11-22T06:36:35.964Z,24.2
2022-11-22T06:42:14.442Z,24.2
2022-11-22T06:47:51.267Z,24.2
2022-11-22T06:53:54.064Z,24.2
2022-11-22T07:00:03.081Z,24.2
2022-11-22T07:06:18.000Z,24.2
2022-11-22T07:12:04.146Z,24.1
2022-11-22T07:17:49.270Z,24.1
2022-11-22T07:23:14.930Z,24.1
2022-11-22T07:28:53.182Z,24.1
2022-11-22T07:34:31.536Z,24
2022-11-22T07:40:00.537Z,24
2022-11-22T07:45:23.173Z,24
2022-11-22T07:50:48.433Z,24.1
2022-11-22T07:56:10.810Z,24.1
2022-11-22T08:01:50.395Z,24.1
2022-11-22T08:07:33.157Z,24.2
2022-11-22T08:13:16.080Z,24.2
2022-11-22T08:18:58.772Z,24.3
2022-11-22T08:24:37.831Z,24.3
2022-11-22T08:30:15.795Z,24.3
2022-11-22T08:35:58.771Z,24.3
2022-11-22T08:41:37.386Z,24.3
2022-11-22T08:47:15.575Z,24.3
2022-11-22T08:52:55.640Z,24.3
2022-11-22T08:58:36.292Z,24.3
2022-11-22T09:04:00.278Z,24.3
2022-11-22T09:12:20.111Z,24.3
2022-11-22T09:17:58.280Z,24.3
2022-11-22T09:23:39.675Z,24.3
2022-11-22T09:29:19.095Z,24.3
2022-11-22T09:34:57.642Z,24.3
2022-11-22T09:40:42.708Z,24.3
2022-11-22T09:46:20.884Z,24.3
2022-11-22T09:52:05.909Z,24.2
2022-11-22T09:57:44.214Z,24
2022-11-22T10:03:55.577Z,24
2022-11-22T10:09:34.417Z,24.1
2022-11-22T10:15:16.389Z,24.1
2022-11-22T10:20:55.848Z,24.1
2022-11-22T10:26:34.173Z,24.1
2022-11-22T10:32:15.306Z,24.2
2022-11-22T10:37:59.563Z,24.1
2022-11-22T10:43:38.382Z,24.1
2022-11-22T10:49:19.602Z,24.1
2022-11-22T10:54:58.878Z,24.1
2022-11-22T11:00:40.337Z,24.1
2022-11-22T11:06:29.381Z,24.1
2022-11-22T11:14:09.032Z,24.2
2022-11-22T11:19:54.121Z,24.1
2022-11-22T11:26:08.419Z,24.1
2022-11-22T11:31:51.692Z,24.2
2022-11-22T11:37:29.980Z,24.1
2022-11-22T11:43:10.763Z,24.1
2022-11-22T11:48:49.896Z,24.1
2022-11-22T11:54:12.049Z,24.1
2022-11-22T11:59:51.150Z,24.2
2022-11-22T12:05:22.523Z,24.1
2022-11-22T12:11:01.451Z,24.1
2022-11-22T12:17:44.804Z,24.1
2022-11-22T12:23:50.693Z,24.1
2022-11-22T12:53:54.526Z,24.1
2022-11-22T12:59:41.241Z,24.1
2022-11-22T13:05:19.648Z,24.1
2022-11-22T13:11:05.887Z,24.1
2022-11-22T13:16:43.817Z,24.1
2022-11-22T13:22:28.150Z,24.1
2022-11-22T13:28:14.208Z,24.1
2022-11-22T13:33:58.049Z,24.1
2022-11-22T13:39:37.304Z,24.1
2022-11-22T13:45:24.727Z,24.1
2022-11-22T13:51:06.220Z,24.1
2022-11-22T13:56:34.801Z,24.1
2022-11-22T14:02:01.805Z,24.1
2022-11-22T14:07:43.719Z,24.1
2022-11-22T14:13:25.527Z,24.1
2022-11-22T14:19:10.169Z,24.1
2022-11-22T14:24:47.840Z,24.1
2022-11-22T14:30:31.119Z,24.1
2022-11-22T14:35:56.288Z,24.1
2022-11-22T14:41:38.515Z,24.1
2022-11-22T14:47:49.411Z,24.1
2022-11-22T14:53:34.990Z,24
2022-11-22T14:59:17.337Z,24.1
2022-11-22T15:10:12.737Z,24.1
2022-11-22T15:57:48.243Z,23.9
2022-11-22T16:03:54.709Z,24
2022-11-22T16:10:33.905Z,24
2022-11-22T16:15:56.188Z,23.9
2022-11-22T16:21:42.198Z,23.9
2022-11-22T16:27:11.008Z,23.9
2022-11-22T16:32:48.472Z,23.9
2022-11-22T16:38:59.386Z,23.9
2022-11-22T16:44:21.970Z,23.9
2022-11-22T16:50:03.594Z,23.9
2022-11-22T16:55:27.923Z,23.9
2022-11-22T17:01:12.561Z,23.9
2022-11-22T17:06:54.134Z,23.9
2022-11-22T17:12:34.111Z,23.9
2022-11-22T17:18:14.061Z,23.9
2022-11-22T17:24:12.775Z,23.9
2022-11-22T17:30:27.529Z,23.9
2022-11-22T17:36:04.943Z,23.9
2022-11-22T17:41:43.012Z,23.9
2022-11-22T17:47:30.225Z,23.9
2022-11-22T17:53:13.454Z,23.9
2022-11-22T17:59:23.947Z,23.8
2022-11-22T18:04:54.236Z,23.9
2022-11-22T18:10:16.868Z,23.8
2022-11-22T18:16:14.542Z,23.8
2022-11-22T18:22:28.672Z,23.8
2022-11-22T18:28:40.157Z,23.8
2022-11-22T18:35:06.446Z,23.8
2022-11-22T18:40:58.880Z,23.8
2022-11-22T18:46:26.661Z,23.8
2022-11-22T18:52:08.659Z,23.8
2022-11-22T18:57:34.551Z,23.8
2022-11-22T19:03:14.279Z,23.8
2022-11-22T19:08:52.857Z,23.8
2022-11-22T19:14:35.461Z,23.8
2022-11-22T19:19:47.394Z,23.8
2022-11-22T19:25:28.625Z,23.8
2022-11-22T19:31:10.155Z,23.8
2022-11-22T19:36:34.587Z,23.8
2022-11-22T19:41:43.664Z,23.8
2022-11-22T19:47:15.093Z,23.8
2022-11-22T19:53:02.398Z,23.8
2022-11-22T19:58:26.607Z,23.7
2022-11-22T20:04:14.260Z,23.8
2022-11-22T20:09:43.333Z,23.8
2022-11-22T20:15:29.234Z,23.8
2022-11-22T20:21:10.514Z,23.8
2022-11-22T20:26:35.577Z,23.8
2022-11-22T20:32:14.857Z,23.8
2022-11-22T20:37:24.919Z,23.7
2022-11-22T20:43:37.170Z,23.8
2022-11-22T20:49:15.797Z,23.8
2022-11-22T20:54:58.040Z,23.7
2022-11-22T21:00:40.532Z,23.7
2022-11-22T21:06:23.457Z,23.8
2022-11-22T21:12:04.775Z,23.7
2022-11-22T21:18:27.592Z,23.7
2022-11-22T21:23:53.918Z,23.7
2022-11-22T21:29:18.114Z,23.7
2022-11-22T21:34:40.433Z,23.7
2022-11-22T21:40:02.802Z,23.7
2022-11-22T21:46:26.597Z,23.7
2022-11-22T21:52:11.045Z,23.7
2022-11-22T21:57:39.664Z,23.7
2022-11-22T22:03:19.434Z,23.7
2022-11-22T22:09:30.102Z,23.6
2022-11-22T22:15:08.247Z,23.7
2022-11-22T22:20:52.268Z,23.6
2022-11-22T22:26:30.496Z,23.7
2022-11-22T22:32:10.638Z,23.7
2022-11-22T22:37:34.726Z,23.6
2022-11-22T22:43:12.232Z,23.6
2022-11-22T22:48:41.669Z,23.6
2022-11-22T22:54:25.314Z,23.6
2022-11-22T23:00:07.038Z,23.6
2022-11-22T23:05:44.965Z,23.6
2022-11-22T23:10:53.920Z,23.6
2022-11-22T23:16:38.571Z,23.6
2022-11-22T23:22:20.874Z,23.6
2022-11-22T23:27:48.154Z,23.6
2022-11-22T23:33:11.101Z,23.6
2022-11-22T23:38:48.208Z,23.7
2022-11-22T23:44:27.336Z,23.6
2022-11-22T23:50:05.493Z,23.6
2022-11-22T23:55:42.641Z,23.6
